Time;durP1;ratioP1;P1;durP2;ratioP2;P2;SDS_P1;SDS_P2;PMS_P1;PMS_P2;Temp;Humidity;BMP_temperature;BMP_pressure;BME280_temperature;BME280_humidity;BME280_pressure;Samples;Min_cycle;Max_cycle;Signal;HPM_P1;HPM_P2
2021/12/26 00:00:43;;;;;;;32.17;28.67;;;;;;;4.97;65.07;94512.44;5075726;28;20185;-65
2021/12/26 00:03:10;;;;;;;36.35;32.65;;;;;;;4.83;64.89;94504.50;5074651;28;20212;-65
2021/12/26 00:05:37;;;;;;;34.72;31.05;;;;;;;4.79;65.60;94505.47;5073887;28;20639;-65
2021/12/26 00:08:06;;;;;;;36.63;32.65;;;;;;;4.77;65.80;94511.28;5075207;28;20201;-65
2021/12/26 00:10:33;;;;;;;36.03;32.25;;;;;;;4.71;66.05;94509.84;5075486;28;20191;-65
2021/12/26 00:13:00;;;;;;;34.53;30.88;;;;;;;4.65;65.97;94505.72;5075201;28;20181;-65
2021/12/26 00:15:27;;;;;;;33.63;30.02;;;;;;;4.65;65.88;94502.19;5075292;28;20177;-65
2021/12/26 00:17:54;;;;;;;32.85;29.33;;;;;;;4.60;65.84;94514.09;5075351;28;20189;-65
2021/12/26 00:20:21;;;;;;;28.92;25.95;;;;;;;4.59;66.31;94507.84;5075011;28;20197;-65
2021/12/26 00:22:49;;;;;;;28.48;25.45;;;;;;;4.56;65.88;94507.69;5074690;28;20204;-65
2021/12/26 00:25:17;;;;;;;27.45;24.75;;;;;;;4.53;66.27;94517.34;5075236;28;20270;-65
2021/12/26 00:27:44;;;;;;;26.52;23.83;;;;;;;4.52;66.15;94525.88;5074703;28;20204;-65
2021/12/26 00:30:16;;;;;;;24.70;22.20;;;;;;;4.53;66.76;94516.53;5074603;28;20197;-65
2021/12/26 00:32:44;;;;;;;23.60;21.13;;;;;;;4.57;66.17;94509.28;5075390;28;20192;-65
2021/12/26 00:35:12;;;;;;;22.80;20.45;;;;;;;4.60;66.56;94503.16;5074076;28;20193;-65
2021/12/26 00:37:40;;;;;;;22.80;20.10;;;;;;;4.61;66.52;94520.34;5075309;28;20199;-65
2021/12/26 00:40:10;;;;;;;21.67;19.48;;;;;;;4.58;66.51;94514.44;5074327;28;20197;-65
2021/12/26 00:42:38;;;;;;;23.27;20.73;;;;;;;4.58;66.85;94514.44;5075016;28;20179;-65
2021/12/26 00:45:07;;;;;;;21.88;19.67;;;;;;;4.56;66.39;94519.41;5074721;28;20294;-65
2021/12/26 00:47:34;;;;;;;19.80;17.83;;;;;;;4.63;66.28;94518.09;5075108;28;20193;-65
2021/12/26 00:50:04;;;;;;;19.77;17.77;;;;;;;4.63;66.13;94523.56;5075017;28;20204;-65
2021/12/26 00:52:31;;;;;;;21.60;19.50;;;;;;;4.61;66.36;94517.63;5073885;28;20276;-65
2021/12/26 00:54:58;;;;;;;21.73;19.63;;;;;;;4.55;66.48;94526.00;5074723;28;20192;-65
2021/12/26 00:57:24;;;;;;;19.48;17.52;;;;;;;4.50;66.67;94515.28;5075023;28;20192;-65
2021/12/26 00:59:53;;;;;;;21.10;19.08;;;;;;;4.55;66.20;94517.03;5075068;28;20193;-65
2021/12/26 01:02:20;;;;;;;23.42;20.98;;;;;;;4.49;65.63;94521.84;5074866;28;20520;-65
2021/12/26 01:04:47;;;;;;;22.50;20.30;;;;;;;4.36;66.25;94517.44;5073965;28;20220;-65
2021/12/26 01:07:23;;;;;;;18.08;16.40;;;;;;;4.47;66.58;94515.94;5074004;28;20539;-65
2021/12/26 01:09:52;;;;;;;19.42;17.65;;;;;;;4.67;66.09;94514.38;5074591;28;20197;-65
2021/12/26 01:12:19;;;;;;;19.58;17.65;;;;;;;4.63;66.20;94509.91;5074898;28;20199;-65
2021/12/26 01:14:51;;;;;;;18.92;17.02;;;;;;;4.64;66.17;94511.50;5074807;28;20192;-65
2021/12/26 01:17:22;;;;;;;19.58;17.63;;;;;;;4.68;66.09;94510.50;5078055;28;20204;-65
2021/12/26 01:19:52;;;;;;;19.90;18.10;;;;;;;4.60;66.38;94511.38;5078805;28;20185;-65
2021/12/26 01:22:20;;;;;;;21.45;19.35;;;;;;;4.54;66.48;94512.69;5078561;28;20298;-65
2021/12/26 01:24:55;;;;;;;20.42;18.42;;;;;;;4.52;66.67;94506.75;5077633;28;20231;-65
2021/12/26 01:27:22;;;;;;;20.15;18.30;;;;;;;4.52;66.88;94501.28;5077698;28;20258;-65
2021/12/26 01:29:49;;;;;;;21.23;19.13;;;;;;;4.43;66.12;94497.78;5077704;28;20208;-65
2021/12/26 01:32:16;;;;;;;22.90;20.60;;;;;;;4.30;65.93;94488.69;5077346;28;20189;-65
2021/12/26 01:34:45;;;;;;;24.50;22.08;;;;;;;4.20;66.38;94489.84;5078598;28;20185;-65
2021/12/26 01:37:12;;;;;;;23.95;21.50;;;;;;;4.21;66.38;94496.91;5078392;28;20185;-65
2021/12/26 01:39:39;;;;;;;21.92;19.77;;;;;;;4.19;66.78;94473.81;5078391;28;20181;-65
2021/12/26 01:42:08;;;;;;;21.83;19.73;;;;;;;4.23;67.00;94485.66;5077955;28;20197;-65
2021/12/26 01:44:36;;;;;;;25.13;22.63;;;;;;;4.28;66.92;94482.75;5078248;28;20640;-65
2021/12/26 01:47:04;;;;;;;26.42;23.83;;;;;;;4.21;66.96;94486.00;5078323;28;20624;-65
2021/12/26 01:49:32;;;;;;;26.58;23.88;;;;;;;4.18;67.22;94477.66;5078308;28;20186;-65
2021/12/26 01:52:03;;;;;;;26.90;24.13;;;;;;;4.24;67.73;94477.13;5078219;28;20181;-65
2021/12/26 01:54:36;;;;;;;25.58;23.10;;;;;;;4.33;67.29;94486.09;5077302;28;20185;-65
2021/12/26 01:57:06;;;;;;;26.65;23.77;;;;;;;4.40;67.36;94491.06;5077157;28;20205;-65
2021/12/26 01:59:33;;;;;;;27.13;24.42;;;;;;;4.41;67.03;94478.22;5077788;28;20275;-65
2021/12/26 02:02:00;;;;;;;25.55;23.05;;;;;;;4.35;66.87;94475.66;5078320;28;20185;-65
2021/12/26 02:04:28;;;;;;;26.33;23.73;;;;;;;4.35;67.09;94480.31;5077905;28;20213;-65
2021/12/26 02:06:55;;;;;;;25.00;22.58;;;;;;;4.37;67.36;94482.72;5077730;28;20245;-65
2021/12/26 02:09:24;;;;;;;24.92;22.55;;;;;;;4.39;67.23;94480.44;5076988;28;20232;-65
2021/12/26 02:11:51;;;;;;;24.25;21.98;;;;;;;4.38;67.40;94482.38;5077862;28;20260;-65
2021/12/26 02:14:18;;;;;;;25.47;22.83;;;;;;;4.40;67.34;94466.50;5077294;28;20197;-65
2021/12/26 02:16:45;;;;;;;25.70;22.92;;;;;;;4.41;67.05;94472.75;5076874;28;20189;-65
2021/12/26 02:19:12;;;;;;;24.95;22.13;;;;;;;4.40;67.31;94473.88;5077306;28;20526;-65
2021/12/26 02:21:59;;;;;;;26.05;23.35;;;;;;;4.31;67.39;94471.97;5076460;28;20606;-65
2021/12/26 02:24:30;;;;;;;29.33;26.42;;;;;;;4.15;67.13;94478.31;5077465;28;20216;-65
2021/12/26 02:29:43;;;;;;;29.67;26.73;;;;;;;4.03;68.06;94466.16;5076811;28;20201;-65
2021/12/26 02:32:10;;;;;;;28.63;25.73;;;;;;;3.99;67.82;94469.84;5077584;28;20177;-65
2021/12/26 02:34:37;;;;;;;27.25;24.65;;;;;;;3.94;67.99;94481.75;5077335;28;20174;-65
2021/12/26 02:37:06;;;;;;;28.52;25.63;;;;;;;3.91;68.25;94479.66;5077350;28;20255;-65
2021/12/26 02:39:33;;;;;;;29.90;27.00;;;;;;;3.90;67.99;94474.53;5077185;28;20173;-65
2021/12/26 02:42:00;;;;;;;28.80;26.00;;;;;;;3.92;68.31;94470.38;5077520;28;20181;-65
2021/12/26 02:44:27;;;;;;;30.77;27.73;;;;;;;3.93;68.62;94469.22;5076249;28;20213;-65
2021/12/26 02:46:54;;;;;;;29.33;26.40;;;;;;;3.91;68.50;94479.66;5077040;28;20204;-65
2021/12/26 02:49:24;;;;;;;27.70;24.98;;;;;;;3.97;68.65;94470.19;5077130;28;20186;-65
2021/12/26 02:51:51;;;;;;;26.83;24.08;;;;;;;3.97;68.80;94472.91;5077211;28;20192;-65
2021/12/26 02:54:20;;;;;;;25.88;23.27;;;;;;;4.03;69.00;94474.34;5076437;28;20284;-65
2021/12/26 02:56:46;;;;;;;25.52;23.05;;;;;;;4.03;68.51;94476.25;5076770;28;20527;-65
2021/12/26 02:59:13;;;;;;;26.13;23.50;;;;;;;4.01;68.75;94479.31;5077003;28;20192;-65
2021/12/26 03:01:40;;;;;;;26.75;24.23;;;;;;;4.00;68.49;94471.47;5076582;28;20181;-65
2021/12/26 03:04:08;;;;;;;29.90;26.92;;;;;;;3.88;68.33;94476.78;5075822;28;20221;-65
2021/12/26 03:06:42;;;;;;;31.52;28.42;;;;;;;3.81;68.32;94469.91;5076774;28;20243;-65
2021/12/26 03:09:10;;;;;;;32.40;29.17;;;;;;;3.77;68.68;94477.09;5076711;28;20180;-65
2021/12/26 03:11:38;;;;;;;25.63;22.90;;;;;;;3.78;68.64;94472.47;5075805;28;20201;-65
2021/12/26 03:14:06;;;;;;;26.52;23.88;;;;;;;3.86;69.04;94467.00;5076748;28;20197;-65
2021/12/26 03:16:33;;;;;;;28.45;25.70;;;;;;;3.89;68.32;94475.66;5075926;28;20193;-65
2021/12/26 03:19:01;;;;;;;26.15;23.55;;;;;;;3.91;68.88;94471.47;5075541;28;20648;-65
2021/12/26 03:21:28;;;;;;;26.40;23.73;;;;;;;3.94;69.00;94462.63;5076465;28;20185;-65
2021/12/26 03:23:55;;;;;;;25.75;23.20;;;;;;;4.01;68.61;94459.41;5075570;28;20204;-65
2021/12/26 03:26:22;;;;;;;26.52;23.85;;;;;;;3.99;68.48;94454.25;5075922;28;20243;-65
2021/12/26 03:28:50;;;;;;;24.42;22.00;;;;;;;3.97;68.20;94456.53;5076013;28;20181;-64
2021/12/26 03:31:17;;;;;;;24.75;22.35;;;;;;;3.95;68.70;94468.88;5075919;28;20204;-64
2021/12/26 03:33:44;;;;;;;23.40;21.23;;;;;;;4.04;68.82;94464.22;5076257;28;20196;-65
2021/12/26 03:36:11;;;;;;;21.02;18.92;;;;;;;4.05;68.62;94468.53;5075414;28;20201;-65
2021/12/26 03:38:38;;;;;;;23.00;20.70;;;;;;;4.09;68.33;94466.75;5075297;28;20207;-65
2021/12/26 03:41:05;;;;;;;22.52;20.27;;;;;;;4.10;68.31;94479.28;5076044;28;20201;-65
2021/12/26 03:43:32;;;;;;;21.23;19.10;;;;;;;4.12;68.00;94474.31;5076060;28;20185;-65
2021/12/26 03:46:00;;;;;;;21.27;19.27;;;;;;;4.14;68.90;94479.41;5075564;28;20633;-65
2021/12/26 03:48:28;;;;;;;21.48;19.45;;;;;;;4.13;68.25;94483.28;5075237;28;20197;-65
2021/12/26 03:51:14;;;;;;;21.85;19.73;;;;;;;4.07;68.37;94493.59;5076041;28;20211;-65
2021/12/26 03:53:40;;;;;;;20.95;18.95;;;;;;;4.10;68.46;94479.28;5074884;28;20235;-65
2021/12/26 03:56:07;;;;;;;21.23;19.23;;;;;;;4.07;68.86;94490.88;5075793;28;20272;-65
2021/12/26 03:58:34;;;;;;;19.25;17.45;;;;;;;4.10;69.10;94484.72;5075029;28;20196;-65
2021/12/26 04:01:02;;;;;;;19.15;17.25;;;;;;;4.23;68.19;94477.47;5075928;28;20188;-65
2021/12/26 04:03:29;;;;;;;19.02;17.23;;;;;;;4.24;68.29;94482.59;5075541;28;20181;-65
2021/12/26 04:05:56;;;;;;;19.30;17.60;;;;;;;4.26;68.32;94485.81;5075230;28;20664;-65
2021/12/26 04:08:23;;;;;;;19.83;18.02;;;;;;;4.26;68.49;94482.28;5074908;28;20193;-65
2021/12/26 04:10:50;;;;;;;20.15;18.13;;;;;;;4.20;68.43;94491.78;5075258;28;20195;-65
2021/12/26 04:13:16;;;;;;;23.60;21.27;;;;;;;4.11;68.66;94494.53;5074569;28;20196;-65
2021/12/26 04:15:43;;;;;;;24.52;22.02;;;;;;;4.01;68.84;94492.97;5075898;28;20181;-65
2021/12/26 04:18:12;;;;;;;23.52;21.13;;;;;;;4.00;69.33;94494.09;5075447;28;20181;-65
2021/12/26 04:20:39;;;;;;;20.90;18.83;;;;;;;3.99;69.16;94487.00;5075415;28;20185;-65
2021/12/26 04:23:06;;;;;;;26.35;23.65;;;;;;;4.02;69.34;94491.81;5075303;28;20201;-65
2021/12/26 04:25:33;;;;;;;21.52;19.27;;;;;;;4.05;69.39;94480.25;5074976;28;20247;-65
2021/12/26 04:28:00;;;;;;;19.63;17.73;;;;;;;4.13;69.43;94489.53;5074515;28;20196;-65
2021/12/26 04:30:28;;;;;;;20.38;18.45;;;;;;;4.16;69.12;94493.56;5075426;28;20181;-65
2021/12/26 04:32:54;;;;;;;19.63;17.83;;;;;;;4.24;68.70;94487.25;5075286;28;20189;-65
2021/12/26 04:35:24;;;;;;;19.00;17.20;;;;;;;4.31;68.40;94487.56;5074326;28;20622;-65
2021/12/26 04:37:51;;;;;;;20.55;18.65;;;;;;;4.33;68.96;94494.28;5074924;28;20199;-65
2021/12/26 04:40:18;;;;;;;21.90;19.80;;;;;;;4.31;68.81;94493.81;5075215;28;20182;-65
2021/12/26 04:42:46;;;;;;;19.15;16.92;;;;;;;4.27;68.54;94501.06;5075179;28;20189;-65
2021/12/26 04:45:14;;;;;;;18.30;16.50;;;;;;;4.30;68.80;94505.06;5074091;28;20296;-64
2021/12/26 04:47:42;;;;;;;19.33;17.52;;;;;;;4.34;68.73;94495.09;5074791;28;20304;-65
2021/12/26 04:50:14;;;;;;;19.98;18.17;;;;;;;4.33;68.85;94505.22;5073869;28;20189;-65
2021/12/26 04:52:43;;;;;;;18.65;16.92;;;;;;;4.33;68.82;94497.03;5074225;28;20296;-65
2021/12/26 04:55:11;;;;;;;19.15;17.45;;;;;;;4.35;68.87;94508.41;5074080;28;20259;-65
2021/12/26 04:57:38;;;;;;;19.50;17.70;;;;;;;4.35;69.10;94513.06;5075081;28;20185;-65
2021/12/26 05:00:06;;;;;;;17.85;16.10;;;;;;;4.39;69.16;94499.56;5074288;28;20199;-65
2021/12/26 05:02:35;;;;;;;17.55;15.95;;;;;;;4.42;69.43;94509.84;5075044;28;20251;-65
2021/12/26 05:05:03;;;;;;;16.17;14.48;;;;;;;4.51;68.55;94511.41;5073977;28;20294;-65
2021/12/26 05:07:31;;;;;;;20.65;18.75;;;;;;;4.58;69.03;94508.19;5073973;28;20235;-65
2021/12/26 05:09:59;;;;;;;19.33;17.60;;;;;;;4.55;68.47;94509.63;5074897;28;20185;-65
2021/12/26 05:12:25;;;;;;;19.55;17.75;;;;;;;4.54;68.38;94508.03;5074585;28;20606;-65
2021/12/26 05:14:53;;;;;;;19.08;17.17;;;;;;;4.54;68.75;94508.03;5074861;28;20188;-65
2021/12/26 05:17:19;;;;;;;19.48;17.73;;;;;;;4.52;68.74;94512.22;5074765;28;20196;-65
2021/12/26 05:19:46;;;;;;;18.95;17.15;;;;;;;4.47;69.64;94509.69;5074305;28;20204;-64
2021/12/26 05:22:13;;;;;;;17.25;15.65;;;;;;;4.48;69.31;94508.53;5075076;28;20181;-65
2021/12/26 05:24:40;;;;;;;18.67;16.88;;;;;;;4.50;69.18;94509.00;5073286;28;20219;-65
2021/12/26 05:27:08;;;;;;;17.98;16.35;;;;;;;4.49;69.37;94523.78;5074706;28;20590;-64
2021/12/26 05:29:35;;;;;;;18.40;16.70;;;;;;;4.48;69.63;94524.91;5073956;28;20632;-65
2021/12/26 05:32:02;;;;;;;18.20;16.42;;;;;;;4.48;69.86;94527.66;5073621;28;20193;-64
2021/12/26 05:34:29;;;;;;;18.00;16.30;;;;;;;4.52;70.19;94520.41;5074773;28;20200;-64
2021/12/26 05:36:55;;;;;;;19.48;17.67;;;;;;;4.51;70.60;94524.28;5074945;28;20202;-65
2021/12/26 05:39:22;;;;;;;17.75;15.85;;;;;;;4.54;70.93;94521.69;5074698;28;20212;-65
2021/12/26 05:41:49;;;;;;;20.10;18.17;;;;;;;4.59;70.77;94507.84;5074334;28;20197;-65
2021/12/26 05:44:17;;;;;;;19.02;17.13;;;;;;;4.56;71.13;94521.34;5074594;28;20200;-65
2021/12/26 05:46:45;;;;;;;18.65;16.75;;;;;;;4.61;70.46;94506.69;5074547;28;20209;-65
2021/12/26 05:49:12;;;;;;;20.10;18.08;;;;;;;4.69;70.46;94511.34;5073645;28;20205;-65
2021/12/26 05:51:42;;;;;;;20.05;18.05;;;;;;;4.70;70.88;94519.19;5074221;28;20190;-64
2021/12/26 05:54:09;;;;;;;19.50;17.65;;;;;;;4.70;70.75;94491.88;5074561;28;20193;-65
2021/12/26 05:56:36;;;;;;;21.55;19.35;;;;;;;4.72;71.21;94486.91;5074258;28;20201;-65
2021/12/26 05:59:03;;;;;;;28.20;25.33;;;;;;;4.74;71.37;94502.94;5074373;28;20181;-65
2021/12/26 06:01:32;;;;;;;33.70;30.30;;;;;;;4.70;70.98;94485.63;5074339;28;20185;-65
2021/12/26 06:03:58;;;;;;;29.52;26.58;;;;;;;4.77;70.68;94483.16;5076825;28;20195;-65
2021/12/26 06:06:25;;;;;;;27.60;24.90;;;;;;;4.83;70.67;94466.25;5077355;28;20224;-65
2021/12/26 06:08:52;;;;;;;39.30;35.67;;;;;;;4.84;71.11;94447.94;5077922;28;20196;-65
2021/12/26 06:11:19;;;;;;;31.30;28.13;;;;;;;4.78;71.36;94458.22;5077913;28;20185;-65
2021/12/26 06:13:46;;;;;;;29.35;26.35;;;;;;;4.77;71.19;94462.09;5077382;28;20197;-65
2021/12/26 06:16:12;;;;;;;28.38;25.45;;;;;;;4.75;70.67;94441.69;5077881;28;20181;-65
2021/12/26 06:18:41;;;;;;;25.63;23.23;;;;;;;4.78;70.91;94449.25;5077031;28;20197;-65
2021/12/26 06:21:07;;;;;;;24.88;22.38;;;;;;;4.76;70.73;94454.25;5077633;28;20189;-65
2021/12/26 06:23:34;;;;;;;27.30;24.60;;;;;;;4.76;71.17;94438.66;5077629;28;20194;-65
2021/12/26 06:26:01;;;;;;;24.92;22.63;;;;;;;4.69;71.18;94459.44;5077218;28;20567;-65
2021/12/26 06:28:28;;;;;;;24.55;22.15;;;;;;;4.70;71.24;94439.19;5077564;28;20205;-65
2021/12/26 06:30:55;;;;;;;23.48;21.15;;;;;;;4.74;71.24;94448.31;5076780;28;20223;-65
2021/12/26 06:33:22;;;;;;;23.20;21.13;;;;;;;4.73;71.68;94449.44;5076420;28;20192;-65
2021/12/26 06:35:50;;;;;;;21.85;19.65;;;;;;;4.72;72.12;94454.13;5077403;28;20207;-65
2021/12/26 06:38:17;;;;;;;21.45;19.45;;;;;;;4.76;72.20;94473.38;5076388;28;20528;-65
2021/12/26 06:40:44;;;;;;;20.88;18.67;;;;;;;4.77;72.93;94483.16;5077225;28;20177;-65
2021/12/26 06:43:11;;;;;;;19.52;17.63;;;;;;;4.82;72.44;94480.22;5076311;28;20606;-65
2021/12/26 06:45:38;;;;;;;22.73;20.60;;;;;;;4.87;72.36;94487.47;5077166;28;20213;-65
2021/12/26 06:48:07;;;;;;;24.05;21.63;;;;;;;4.85;72.59;94481.50;5076958;28;20582;-65
2021/12/26 06:50:35;;;;;;;25.77;23.27;;;;;;;4.81;72.48;94484.09;5076555;28;20200;-65
2021/12/26 06:53:03;;;;;;;25.90;23.42;;;;;;;4.81;73.38;94505.97;5076190;28;20251;-65
2021/12/26 06:55:30;;;;;;;27.92;25.08;;;;;;;4.82;72.85;94491.97;5077272;28;20183;-65
2021/12/26 06:57:57;;;;;;;29.95;27.08;;;;;;;4.87;72.53;94509.31;5076961;28;20185;-65
2021/12/26 07:00:24;;;;;;;31.20;28.08;;;;;;;4.87;72.22;94522.97;5076895;28;20268;-65
2021/12/26 07:02:51;;;;;;;27.52;24.83;;;;;;;4.93;71.76;94521.63;5076666;28;20197;-65
2021/12/26 07:05:18;;;;;;;26.08;23.67;;;;;;;4.97;72.31;94515.19;5076496;28;20185;-65
2021/12/26 07:07:45;;;;;;;27.42;24.75;;;;;;;5.01;71.94;94521.59;5075933;28;20227;-65
2021/12/26 07:10:13;;;;;;;25.85;23.27;;;;;;;5.03;71.73;94519.34;5076477;28;20177;-65
2021/12/26 07:12:40;;;;;;;24.40;21.88;;;;;;;5.01;71.91;94529.81;5075846;28;20189;-65
2021/12/26 07:15:08;;;;;;;24.02;21.55;;;;;;;5.00;71.63;94514.53;5075417;28;20204;-65
2021/12/26 07:17:35;;;;;;;24.00;21.70;;;;;;;5.01;72.93;94528.97;5075718;28;20193;-65
2021/12/26 07:20:02;;;;;;;24.77;22.33;;;;;;;5.00;72.82;94517.25;5076583;28;20200;-65
2021/12/26 07:22:29;;;;;;;25.10;22.50;;;;;;;5.01;72.41;94521.59;5075781;28;20228;-65
2021/12/26 07:24:55;;;;;;;25.02;22.63;;;;;;;5.02;73.26;94516.94;5075379;28;20239;-65
2021/12/26 07:27:24;;;;;;;24.65;22.35;;;;;;;5.02;73.89;94519.66;5076332;28;20205;-65
2021/12/26 07:29:51;;;;;;;23.25;21.05;;;;;;;5.02;73.43;94519.66;5075594;28;20207;-65
2021/12/26 07:32:18;;;;;;;22.50;20.40;;;;;;;5.03;72.48;94515.81;5075492;28;20208;-65
2021/12/26 07:34:45;;;;;;;23.75;21.35;;;;;;;5.05;72.99;94525.28;5075868;28;20582;-65
2021/12/26 07:37:12;;;;;;;22.23;20.00;;;;;;;5.04;73.31;94520.13;5075146;28;20189;-65
2021/12/26 07:39:39;;;;;;;22.13;20.02;;;;;;;5.03;73.58;94524.78;5075838;28;20193;-65
2021/12/26 07:42:07;;;;;;;20.80;18.83;;;;;;;5.05;73.54;94519.00;5076364;28;20189;-65
2021/12/26 07:44:35;;;;;;;22.30;19.98;;;;;;;5.05;73.88;94522.53;5075287;28;20201;-65
2021/12/26 07:47:02;;;;;;;23.35;21.05;;;;;;;5.06;73.54;94504.22;5074884;28;20217;-65
2021/12/26 07:49:29;;;;;;;22.30;20.10;;;;;;;5.07;74.04;94500.34;5075197;28;20205;-65
2021/12/26 07:51:56;;;;;;;22.80;20.70;;;;;;;5.08;73.55;94496.47;5074740;28;20203;-65
2021/12/26 07:54:24;;;;;;;21.83;19.65;;;;;;;5.11;73.89;94501.28;5074897;28;20597;-65
2021/12/26 07:56:52;;;;;;;22.17;20.08;;;;;;;5.17;74.34;94504.63;5075236;28;20215;-65
2021/12/26 07:59:18;;;;;;;21.30;19.20;;;;;;;5.16;74.26;94509.28;5075357;28;20542;-65
2021/12/26 08:01:47;;;;;;;23.15;20.92;;;;;;;5.24;74.30;94500.22;5075517;28;20200;-64
2021/12/26 08:04:15;;;;;;;24.98;22.67;;;;;;;5.22;73.92;94510.69;5075689;28;20192;-65
2021/12/26 08:06:42;;;;;;;26.42;23.92;;;;;;;5.21;73.44;94487.22;5075489;28;20234;-65
2021/12/26 08:09:09;;;;;;;24.80;22.40;;;;;;;5.21;74.18;94481.75;5074789;28;20209;-65
2021/12/26 08:11:36;;;;;;;24.75;22.45;;;;;;;5.25;74.36;94481.88;5076096;28;20200;-65
2021/12/26 08:14:03;;;;;;;24.15;21.85;;;;;;;5.30;73.90;94470.72;5075452;28;20284;-65
2021/12/26 08:16:29;;;;;;;29.25;26.48;;;;;;;5.32;73.74;94463.81;5075266;28;20185;-65
2021/12/26 08:18:58;;;;;;;29.20;26.52;;;;;;;5.30;73.92;94489.88;5075554;28;20185;-65
2021/12/26 08:21:25;;;;;;;27.85;25.08;;;;;;;5.29;73.78;94489.06;5075337;28;20196;-65
2021/12/26 08:23:51;;;;;;;25.27;22.92;;;;;;;5.34;74.61;94498.22;5075181;28;20618;-65
2021/12/26 08:26:18;;;;;;;23.02;20.83;;;;;;;5.40;74.46;94485.94;5074373;28;20271;-65
2021/12/26 08:28:45;;;;;;;22.88;20.65;;;;;;;5.45;74.15;94481.09;5074682;28;20188;-65
2021/12/26 08:31:14;;;;;;;26.02;23.45;;;;;;;5.48;73.56;94476.84;5074484;28;20201;-65
2021/12/26 08:33:41;;;;;;;25.60;23.00;;;;;;;5.51;73.73;94489.88;5076110;28;20203;-65
2021/12/26 08:36:10;;;;;;;25.85;23.25;;;;;;;5.53;73.62;94491.16;5075802;28;20181;-65
2021/12/26 08:38:37;;;;;;;22.95;20.75;;;;;;;5.54;73.33;94497.41;5074402;28;20602;-65
2021/12/26 08:41:03;;;;;;;21.77;19.40;;;;;;;5.59;73.00;94508.13;5075008;28;20191;-65
2021/12/26 08:43:30;;;;;;;22.08;19.88;;;;;;;5.65;73.82;94508.75;5074485;28;20200;-65
2021/12/26 08:45:58;;;;;;;23.15;20.83;;;;;;;5.68;73.89;94508.88;5074768;28;20303;-65
2021/12/26 08:48:25;;;;;;;22.90;20.45;;;;;;;5.72;74.55;94498.06;5075200;28;20197;-65
2021/12/26 08:50:55;;;;;;;23.52;21.20;;;;;;;5.79;74.49;94490.91;5074783;28;20272;-65
2021/12/26 08:53:24;;;;;;;23.27;21.02;;;;;;;5.86;73.95;94508.72;5074252;28;20379;-65
2021/12/26 08:55:51;;;;;;;22.15;19.90;;;;;;;5.91;73.68;94492.09;5075137;28;20185;-65
2021/12/26 08:58:18;;;;;;;21.98;19.80;;;;;;;5.94;73.45;94500.44;5075087;28;20181;-65
2021/12/26 09:00:45;;;;;;;25.50;22.95;;;;;;;5.95;73.02;94495.78;5075143;28;20188;-65
2021/12/26 09:03:12;;;;;;;29.90;26.83;;;;;;;5.96;73.29;94492.72;5073650;28;20541;-65
2021/12/26 09:05:38;;;;;;;45.92;41.30;;;;;;;5.99;72.90;94497.53;5074102;28;20200;-65
2021/12/26 09:08:10;;;;;;;34.40;30.98;;;;;;;6.02;72.89;94488.59;5075128;28;20185;-65
2021/12/26 09:10:39;;;;;;;34.15;30.75;;;;;;;6.06;72.59;94480.53;5075181;28;20185;-65
2021/12/26 09:13:06;;;;;;;33.92;30.33;;;;;;;6.10;73.51;94473.25;5074001;28;20193;-65
2021/12/26 09:15:33;;;;;;;72.35;64.97;;;;;;;6.14;73.02;94471.44;5074461;28;20268;-65
2021/12/26 09:18:01;;;;;;;91.63;82.75;;;;;;;6.19;72.98;94463.00;5074821;28;20181;-65
2021/12/26 09:20:28;;;;;;;96.97;86.95;;;;;;;6.22;72.70;94475.22;5074476;28;20195;-65
2021/12/26 09:22:55;;;;;;;89.68;80.13;;;;;;;6.23;72.15;94479.53;5074895;28;20196;-65
2021/12/26 09:25:22;;;;;;;87.40;78.50;;;;;;;6.22;72.45;94470.53;5073701;28;20236;-64
2021/12/26 09:27:50;;;;;;;87.85;79.20;;;;;;;6.26;72.76;94474.19;5074846;28;20211;-65
2021/12/26 09:30:17;;;;;;;89.03;79.78;;;;;;;6.31;73.28;94475.09;5074476;28;20182;-65
2021/12/26 09:32:44;;;;;;;87.32;78.18;;;;;;;6.34;72.70;94475.22;5074748;28;20189;-65
2021/12/26 09:35:12;;;;;;;94.97;84.78;;;;;;;6.40;72.58;94473.06;5073705;28;20197;-65
2021/12/26 09:37:38;;;;;;;83.20;74.80;;;;;;;6.46;72.42;94468.94;5075881;28;20196;-65
2021/12/26 09:40:07;;;;;;;89.85;80.57;;;;;;;6.53;72.98;94477.41;5077559;28;20209;-65
2021/12/26 09:42:35;;;;;;;87.13;78.03;;;;;;;6.57;72.53;94480.25;5078398;28;20212;-65
2021/12/26 09:45:04;;;;;;;81.90;73.47;;;;;;;6.63;71.89;94484.38;5078501;28;20262;-65
2021/12/26 09:47:31;;;;;;;79.72;71.63;;;;;;;6.68;71.61;94490.44;5078004;28;20207;-65
2021/12/26 09:49:58;;;;;;;69.47;62.47;;;;;;;6.73;71.60;94479.25;5078309;28;20189;-65
2021/12/26 09:52:25;;;;;;;73.88;66.40;;;;;;;6.80;71.64;94469.66;5078246;28;20182;-65
2021/12/26 09:54:51;;;;;;;70.97;63.88;;;;;;;6.85;71.75;94474.91;5078318;28;20200;-65
2021/12/26 09:57:18;;;;;;;66.43;59.45;;;;;;;6.88;71.19;94479.69;5078262;28;20185;-64
2021/12/26 09:59:47;;;;;;;59.88;53.72;;;;;;;6.94;71.54;94481.06;5078429;28;20186;-64
2021/12/26 10:02:18;;;;;;;48.55;43.63;;;;;;;7.00;71.29;94479.69;5077823;28;20169;-64
2021/12/26 10:04:46;;;;;;;39.30;35.25;;;;;;;7.09;70.92;94482.31;5077047;28;20201;-65
2021/12/26 10:07:15;;;;;;;33.60;30.15;;;;;;;7.13;70.47;94456.59;5077857;28;20228;-65
2021/12/26 10:09:43;;;;;;;34.00;30.73;;;;;;;7.17;70.43;94489.63;5078097;28;20185;-65
2021/12/26 10:12:12;;;;;;;30.75;27.75;;;;;;;7.22;70.56;94467.41;5077230;28;20334;-65
2021/12/26 10:14:40;;;;;;;31.33;28.25;;;;;;;7.20;70.74;94458.75;5077833;28;20185;-65
2021/12/26 10:17:09;;;;;;;25.55;23.23;;;;;;;7.30;70.19;94473.91;5076969;28;20212;-65
2021/12/26 10:19:40;;;;;;;21.98;19.88;;;;;;;7.38;70.07;94473.00;5078082;28;20181;-65
2021/12/26 10:22:08;;;;;;;20.73;18.67;;;;;;;7.40;70.11;94468.75;5077776;28;20185;-64
2021/12/26 10:24:36;;;;;;;19.15;17.40;;;;;;;7.54;69.77;94497.75;5076722;28;20201;-65
2021/12/26 10:27:05;;;;;;;14.95;13.45;;;;;;;7.48;68.15;94465.09;5077134;28;20209;-65
2021/12/26 10:29:33;;;;;;;16.23;14.52;;;;;;;7.54;68.89;94490.31;5078043;28;20190;-65
2021/12/26 10:32:04;;;;;;;13.18;11.82;;;;;;;7.67;67.84;94483.66;5077207;28;20197;-65
2021/12/26 10:34:34;;;;;;;12.68;11.07;;;;;;;7.61;68.39;94449.34;5077730;28;20181;-65
2021/12/26 10:37:05;;;;;;;11.95;10.85;;;;;;;7.56;67.86;94446.88;5076886;28;20239;-65
2021/12/26 10:39:34;;;;;;;10.88;9.85;;;;;;;7.63;67.40;94463.53;5077598;28;20212;-65
2021/12/26 10:42:04;;;;;;;10.98;9.57;;;;;;;7.80;67.54;94473.41;5077057;28;20185;-65
2021/12/26 10:44:34;;;;;;;9.82;8.27;;;;;;;7.97;67.56;94473.13;5077367;28;20189;-65
2021/12/26 10:47:05;;;;;;;10.07;8.32;;;;;;;8.06;66.52;94462.00;5077109;28;20244;-64
2021/12/26 10:49:36;;;;;;;9.18;8.30;;;;;;;8.08;65.80;94473.41;5076415;28;20255;-64
2021/12/26 10:52:21;;;;;;;9.52;8.10;;;;;;;8.05;65.31;94465.06;5076342;28;20216;-65
2021/12/26 10:54:53;;;;;;;9.10;8.10;;;;;;;8.06;65.02;94462.00;5077101;28;20197;-65
2021/12/26 10:57:23;;;;;;;8.60;7.80;;;;;;;8.14;65.30;94469.25;5076075;28;20204;-65
2021/12/26 11:00:14;;;;;;;8.80;7.95;;;;;;;8.28;65.25;94466.09;5077111;28;20212;-65
2021/12/26 11:02:43;;;;;;;8.77;7.97;;;;;;;8.39;64.64;94480.94;5073489;28;20207;-65
2021/12/26 11:05:12;;;;;;;9.07;8.18;;;;;;;8.50;63.84;94478.47;5076867;28;20199;-65
2021/12/26 11:07:46;;;;;;;9.75;8.75;;;;;;;8.57;63.69;94484.16;5076741;28;20636;-65
2021/12/26 11:10:15;;;;;;;9.05;8.25;;;;;;;8.60;63.34;94497.16;5076936;28;20181;-65
2021/12/26 11:12:46;;;;;;;9.82;8.82;;;;;;;8.73;63.17;94483.34;5076042;28;20205;-65
2021/12/26 11:15:14;;;;;;;10.63;9.65;;;;;;;8.87;63.21;94478.97;5076407;28;20191;-65
2021/12/26 11:17:44;;;;;;;13.27;11.98;;;;;;;8.91;62.49;94484.56;5075724;28;20189;-64
2021/12/26 11:20:20;;;;;;;12.65;11.30;;;;;;;8.99;63.24;94488.28;5076370;28;20185;-65
2021/12/26 11:22:48;;;;;;;12.00;10.68;;;;;;;9.13;61.84;94481.16;5075645;28;20200;-65
2021/12/26 11:25:15;;;;;;;11.38;10.23;;;;;;;9.27;61.91;94466.94;5075018;28;20237;-65
2021/12/26 11:27:42;;;;;;;12.57;10.60;;;;;;;9.36;60.98;94463.97;5076780;28;20299;-65
2021/12/26 11:30:10;;;;;;;11.27;10.10;;;;;;;9.51;60.70;94465.88;5076062;28;20185;-65
2021/12/26 11:32:37;;;;;;;11.63;10.43;;;;;;;9.60;60.52;94460.97;5076428;28;20268;-65